Noblesville, Indiana
Current Conditions -  °F | °C
As of 2:55 PM on Thursday 30 Oct 2014 (Local Time) from KTYQ Reporting Station
Clear Clear  
Wind Chill: 52°   Ceiling: Unl
Heat Index: 52°   Visibility: 10mi
Dew Point: 31°   Wind: 3mph
Humidity: 45%   Direction: 250°WSW
Pressure: 30.09"   Gusts: NA
Location:  40.05°N, 86.01°W
Report Text: KTYQ 301855Z AUTO 25003KT 10SM CLR 11/00 A3009 RMK AO2 T01121005
Loading
Personal Weather Stations






























Interactive Weather Map
Tropical Storm Tracking
New forecast layout! Learn more

10-Day Weather Forecast

Advertisements
Track Severe Weather on mobile